createdAt,value
2018-07-22T00:04:48.977Z,18.97
2018-07-22T00:09:46.505Z,19.41
2018-07-22T00:14:44.002Z,19.41
2018-07-22T00:19:41.501Z,19.12
2018-07-22T00:24:38.996Z,18.79
2018-07-22T00:29:36.471Z,18.78
2018-07-22T00:34:33.963Z,18.74
2018-07-22T00:39:31.477Z,18.74
2018-07-22T00:44:28.990Z,18.78
2018-07-22T00:49:26.493Z,18.66
2018-07-22T00:54:24.180Z,18.67
2018-07-22T00:59:21.828Z,18.68
2018-07-22T01:04:19.356Z,18.61
2018-07-22T01:09:16.871Z,18.67
2018-07-22T01:14:14.386Z,18.71
2018-07-22T01:19:11.902Z,18.59
2018-07-22T01:24:09.476Z,18.58
2018-07-22T01:29:07.008Z,18.66
2018-07-22T01:34:04.516Z,18.65
2018-07-22T01:39:02.051Z,18.68
2018-07-22T01:43:59.542Z,18.74
2018-07-22T01:48:57.040Z,18.73
2018-07-22T01:53:54.539Z,18.81
2018-07-22T01:58:52.110Z,18.77
2018-07-22T02:03:49.628Z,18.70
2018-07-22T02:08:47.160Z,18.72
2018-07-22T02:13:44.663Z,19.00
2018-07-22T02:18:42.163Z,18.81
2018-07-22T02:23:39.690Z,18.75
2018-07-22T02:28:37.184Z,18.88
2018-07-22T02:33:34.675Z,18.82
2018-07-22T02:38:32.192Z,18.81
2018-07-22T02:43:29.715Z,19.44
2018-07-22T02:48:27.196Z,19.16
2018-07-22T02:53:24.705Z,18.89
2018-07-22T02:58:22.215Z,18.87
2018-07-22T03:03:19.776Z,19.33
2018-07-22T03:08:17.306Z,18.79
2018-07-22T03:13:14.831Z,18.71
2018-07-22T03:18:12.880Z,18.84
2018-07-22T03:23:10.476Z,18.81
2018-07-22T03:28:08.252Z,19.14
2018-07-22T03:33:05.822Z,19.12
2018-07-22T03:38:03.388Z,18.96
2018-07-22T03:43:00.918Z,18.68
2018-07-22T03:47:58.484Z,18.83
2018-07-22T03:52:56.017Z,18.51
2018-07-22T03:57:53.658Z,18.73
2018-07-22T04:02:51.196Z,18.58
2018-07-22T04:07:48.725Z,18.52
2018-07-22T04:12:46.253Z,18.63
2018-07-22T04:17:43.779Z,18.52
2018-07-22T04:22:41.315Z,18.57
2018-07-22T04:27:38.918Z,19.31
2018-07-22T04:32:36.442Z,19.03
2018-07-22T04:37:34.013Z,18.90
2018-07-22T04:42:31.529Z,18.97
2018-07-22T04:47:29.053Z,18.80
2018-07-22T04:52:26.567Z,18.79
2018-07-22T04:57:24.126Z,18.79
2018-07-22T05:02:22.466Z,18.87
2018-07-22T05:07:19.988Z,18.80
2018-07-22T05:12:17.618Z,18.73
2018-07-22T05:17:15.244Z,18.93
2018-07-22T05:22:12.819Z,18.75
2018-07-22T05:27:10.388Z,18.80
2018-07-22T05:32:07.959Z,18.76
2018-07-22T05:37:05.554Z,18.88
2018-07-22T05:42:04.601Z,18.94
2018-07-22T05:47:02.264Z,19.07
2018-07-22T05:51:59.782Z,19.16
2018-07-22T05:56:57.321Z,19.32
2018-07-22T06:01:54.913Z,19.21
2018-07-22T06:06:52.449Z,19.24
2018-07-22T06:11:55.315Z,19.59
2018-07-22T06:16:52.874Z,20.39
2018-07-22T06:21:50.398Z,20.82
2018-07-22T06:26:47.936Z,20.92
2018-07-22T06:31:45.777Z,21.29
2018-07-22T06:36:43.422Z,21.58
2018-07-22T06:41:49.458Z,21.40
2018-07-22T06:46:47.069Z,21.72
2018-07-22T06:51:44.609Z,21.61
2018-07-22T06:56:42.165Z,22.22
2018-07-22T07:01:39.791Z,22.45
2018-07-22T07:06:37.351Z,22.65
2018-07-22T07:11:43.038Z,22.86
2018-07-22T07:16:40.665Z,23.04
2018-07-22T07:21:38.210Z,22.73
2018-07-22T07:26:35.831Z,22.43
2018-07-22T07:31:33.513Z,21.72
2018-07-22T07:36:31.756Z,21.44
2018-07-22T07:41:34.831Z,21.46
2018-07-22T07:46:35.623Z,21.57
2018-07-22T07:51:33.465Z,22.60
2018-07-22T07:56:31.040Z,21.57
2018-07-22T08:01:28.901Z,21.62
2018-07-22T08:06:26.481Z,22.19
2018-07-22T08:11:33.380Z,22.39
2018-07-22T08:16:30.977Z,21.88
2018-07-22T08:21:28.658Z,21.99
2018-07-22T08:26:26.149Z,21.68
2018-07-22T08:31:23.694Z,21.88
2018-07-22T08:36:21.229Z,22.14
2018-07-22T08:41:22.832Z,21.82
2018-07-22T08:46:20.540Z,22.14
2018-07-22T08:51:18.105Z,22.63
2018-07-22T08:56:15.666Z,23.17
2018-07-22T09:01:13.276Z,23.09
2018-07-22T09:06:10.909Z,23.28
2018-07-22T09:11:10.105Z,23.16
2018-07-22T09:16:07.932Z,24.00
2018-07-22T09:21:05.664Z,23.32
2018-07-22T09:26:03.251Z,23.45
2018-07-22T09:31:00.873Z,23.66
2018-07-22T09:35:58.454Z,23.92
2018-07-22T09:40:59.089Z,23.36
2018-07-22T09:45:56.832Z,23.64
2018-07-22T09:50:54.535Z,24.22
2018-07-22T09:55:52.134Z,24.72
2018-07-22T10:00:54.936Z,24.17
2018-07-22T10:05:52.658Z,24.50
2018-07-22T10:10:50.191Z,24.28
2018-07-22T10:15:47.790Z,24.64
2018-07-22T10:20:45.312Z,24.51
2018-07-22T10:25:42.979Z,24.58
2018-07-22T10:30:40.602Z,25.94
2018-07-22T10:35:38.247Z,24.89
2018-07-22T10:40:35.766Z,25.36
2018-07-22T10:45:33.341Z,25.53
2018-07-22T10:50:30.918Z,26.21
2018-07-22T10:55:28.471Z,26.22
2018-07-22T11:00:26.039Z,25.97
2018-07-22T11:05:23.673Z,25.95
2018-07-22T11:10:21.204Z,25.90
2018-07-22T11:15:18.746Z,26.16
2018-07-22T11:20:16.332Z,26.36
2018-07-22T11:25:13.899Z,26.72
2018-07-22T11:30:11.444Z,26.41
2018-07-22T11:35:08.964Z,27.18
2018-07-22T11:40:06.527Z,27.00
2018-07-22T11:45:04.201Z,26.82
2018-07-22T11:50:01.756Z,26.68
2018-07-22T11:54:59.334Z,27.41
2018-07-22T11:59:56.896Z,27.59
2018-07-22T12:04:54.422Z,27.29
2018-07-22T12:09:51.968Z,27.28
2018-07-22T12:14:49.491Z,26.99
2018-07-22T12:19:46.988Z,26.70
2018-07-22T12:24:44.480Z,26.60
2018-07-22T12:29:41.996Z,26.32
2018-07-22T12:34:39.524Z,26.45
2018-07-22T12:39:40.273Z,26.48
2018-07-22T12:44:37.958Z,26.98
2018-07-22T12:49:35.527Z,27.68
2018-07-22T12:54:33.036Z,27.24
2018-07-22T12:59:30.628Z,27.82
2018-07-22T13:04:28.254Z,26.92
2018-07-22T13:09:25.807Z,28.08
2018-07-22T13:14:23.350Z,28.08
2018-07-22T13:19:20.900Z,27.57
2018-07-22T13:24:19.478Z,27.70
2018-07-22T13:29:31.393Z,27.16
2018-07-22T13:34:36.101Z,27.85
2018-07-22T13:39:40.521Z,27.95
2018-07-22T13:44:38.593Z,28.21
2018-07-22T13:49:36.142Z,27.94
2018-07-22T13:54:33.696Z,27.71
2018-07-22T13:59:31.742Z,27.59
2018-07-22T14:04:29.290Z,28.06
2018-07-22T14:09:26.799Z,28.25
2018-07-22T14:14:24.340Z,27.97
2018-07-22T14:19:23.640Z,27.54
2018-07-22T14:24:21.200Z,27.32
2018-07-22T14:29:18.725Z,27.83
2018-07-22T14:34:16.313Z,28.79
2018-07-22T14:39:13.893Z,28.25
2018-07-22T14:44:11.505Z,27.81
2018-07-22T14:49:09.895Z,28.08
2018-07-22T14:54:12.184Z,27.46
2018-07-22T14:59:11.354Z,27.15
2018-07-22T15:04:13.748Z,27.56
2018-07-22T15:09:11.711Z,28.55
2018-07-22T15:14:09.306Z,28.21
2018-07-22T15:19:12.041Z,28.10
2018-07-22T15:24:09.724Z,28.40
2018-07-22T15:29:09.460Z,28.66
2018-07-22T15:34:08.933Z,28.52
2018-07-22T15:39:08.925Z,27.80
2018-07-22T15:44:06.506Z,28.45
2018-07-22T15:49:04.723Z,28.68
2018-07-22T15:54:02.392Z,28.17
2018-07-22T15:59:01.938Z,27.77
2018-07-22T16:04:01.026Z,27.70
2018-07-22T16:08:59.423Z,27.85
2018-07-22T16:13:57.351Z,27.76
2018-07-22T16:18:57.311Z,27.63
2018-07-22T16:23:56.445Z,27.76
2018-07-22T16:28:54.028Z,28.55
2018-07-22T16:33:51.592Z,27.70
2018-07-22T16:38:49.200Z,27.46
2018-07-22T16:43:46.891Z,26.83
2018-07-22T16:48:45.820Z,26.70
2018-07-22T16:53:43.370Z,26.48
2018-07-22T16:58:42.261Z,26.55
2018-07-22T17:03:40.613Z,26.52
2018-07-22T17:08:38.164Z,26.33
2018-07-22T17:13:35.737Z,26.30
2018-07-22T17:18:33.245Z,26.20
2018-07-22T17:23:32.252Z,26.31
2018-07-22T17:28:29.928Z,26.61
2018-07-22T17:33:27.434Z,26.49
2018-07-22T17:38:24.968Z,26.42
2018-07-22T17:43:22.833Z,26.38
2018-07-22T17:48:20.376Z,26.26
2018-07-22T17:53:17.905Z,26.09
2018-07-22T17:58:15.473Z,26.09
2018-07-22T18:03:27.472Z,26.45
2018-07-22T18:08:25.090Z,26.15
2018-07-22T18:13:22.694Z,26.00
2018-07-22T18:18:20.248Z,25.89
2018-07-22T18:23:17.776Z,25.79
2018-07-22T18:28:15.730Z,26.16
2018-07-22T18:33:13.285Z,26.22
2018-07-22T18:38:14.807Z,26.23
2018-07-22T18:43:12.547Z,26.01
2018-07-22T18:48:10.116Z,25.62
2018-07-22T18:53:07.696Z,25.50
2018-07-22T18:58:05.211Z,25.31
2018-07-22T19:03:02.715Z,25.30
2018-07-22T19:08:00.231Z,25.16
2018-07-22T19:12:57.752Z,25.11
2018-07-22T19:17:55.281Z,24.88
2018-07-22T19:22:52.809Z,24.68
2018-07-22T19:27:50.529Z,24.32
2018-07-22T19:32:48.051Z,23.66
2018-07-22T19:37:48.952Z,23.28
2018-07-22T19:42:46.480Z,23.05
2018-07-22T19:47:44.028Z,22.87
2018-07-22T19:52:41.542Z,22.78
2018-07-22T19:57:39.069Z,22.90
2018-07-22T20:02:36.652Z,23.02
2018-07-22T20:07:34.154Z,22.91
2018-07-22T20:12:31.704Z,22.89
2018-07-22T20:17:29.475Z,22.69
2018-07-22T20:22:26.977Z,22.22
2018-07-22T20:27:25.558Z,21.98
2018-07-22T20:32:23.065Z,21.77
2018-07-22T20:37:20.564Z,21.96
2018-07-22T20:42:18.079Z,22.08
2018-07-22T20:47:18.029Z,21.73
2018-07-22T20:52:20.016Z,21.84
2018-07-22T20:57:23.403Z,22.22
2018-07-22T21:02:23.859Z,22.13
2018-07-22T21:07:25.548Z,22.24
2018-07-22T21:12:49.301Z,22.10
2018-07-22T21:17:47.861Z,22.38
2018-07-22T21:22:45.419Z,22.39
2018-07-22T21:27:42.944Z,22.32
2018-07-22T21:32:40.629Z,22.19
2018-07-22T21:37:38.432Z,22.12
2018-07-22T21:42:35.936Z,22.01
2018-07-22T21:47:33.622Z,21.89
2018-07-22T21:52:31.138Z,21.83
2018-07-22T21:57:28.658Z,21.74
2018-07-22T22:02:30.098Z,21.86
2018-07-22T22:07:27.647Z,21.97
2018-07-22T22:12:25.169Z,21.94
2018-07-22T22:17:22.733Z,22.04
2018-07-22T22:22:20.269Z,22.02
2018-07-22T22:27:17.816Z,21.86
2018-07-22T22:32:15.358Z,21.55
2018-07-22T22:37:12.863Z,21.84
2018-07-22T22:42:10.377Z,21.62
2018-07-22T22:47:07.940Z,21.57
2018-07-22T22:52:06.925Z,21.50
2018-07-22T22:57:04.457Z,21.22
2018-07-22T23:02:02.012Z,20.88
2018-07-22T23:06:59.530Z,20.71
2018-07-22T23:11:57.069Z,20.51
2018-07-22T23:16:54.574Z,20.24
2018-07-22T23:21:53.500Z,20.12
2018-07-22T23:26:50.999Z,19.96
2018-07-22T23:31:48.544Z,19.77
2018-07-22T23:36:46.045Z,19.66
2018-07-22T23:41:43.565Z,20.02
2018-07-22T23:46:43.932Z,20.07
2018-07-22T23:51:46.281Z,19.92
2018-07-22T23:56:43.806Z,19.55
